Dades meteomassalio
Diari Summary for Noviembre 6, 2017 Units:  English    Metric   Both
« Previous Day
Next Day »
Diari Semanal Mensual Anual Personalitzat
  Maxima: Minima: Mijana:
Temperatura: TemperatureC °F 6.7 °F 9.8 °F
Rosada: DewpointC °F 0.6 °F 3 °F
Humitat: Humidity % 45 % 63 %
Velocitat del vent: WindSpeedKMH mph 18.5 mph 40.2 mph
Racha vent: WindSpeedGustKMH mph - -
Vent:- - WSW
Pressio: PressurehPa in 1020.5 in -
Pluja: 0.0 in    
Historical Graphs
 
 
Tabular Data for Noviembre 6, 2017
Time Temperature Dew Point Pressure Wind Wind Speed Wind Gust Humidity Rainfall Rate (Hourly) solar Conditions
TemperatureC °F DewpointC °F PressurehPa in Calm     Humidity % HourlyPrecipMM in SolarRadiationWatts/m^2 W/m2 Conditions
00:03 10.0 °F 5.0 °F 1023.2 in WSW 53.7 mph 53.7 mph 71 % 0.0 in 0.0 W/m2 RA
00:08 10.0 °F 4.8 °F 1022.9 in SSW 40.7 mph 40.7 mph 70 % 0.0 in 0.0 W/m2 CLR
00:13 10.0 °F 4.8 °F 1023.2 in SSW 42.6 mph 42.6 mph 70 % 0.0 in 0.0 W/m2 CLR
00:18 10.0 °F 4.8 °F 1023.2 in SW 50.0 mph 50.0 mph 70 % 0.0 in 0.0 W/m2 CLR
00:23 10.0 °F 4.8 °F 1023.2 in SSW 37.0 mph 37.0 mph 70 % 0.0 in 0.0 W/m2 CLR
00:28 10.0 °F 4.8 °F 1023.2 in WSW 40.7 mph 40.7 mph 70 % 0.0 in 0.0 W/m2 CLR
00:33 10.0 °F 4.8 °F 1023.6 in SW 35.2 mph 35.2 mph 70 % 0.0 in 0.0 W/m2 CLR
00:38 10.0 °F 4.8 °F 1023.6 in WSW 33.3 mph 33.3 mph 70 % 0.0 in 0.0 W/m2 CLR
00:43 10.0 °F 4.8 °F 1023.6 in WSW 37.0 mph 37.0 mph 70 % 0.0 in 0.0 W/m2 CLR
00:48 9.4 °F 4.4 °F 1023.6 in SW 38.9 mph 38.9 mph 71 % 0.0 in 0.0 W/m2 CLR
00:53 9.4 °F 4.4 °F 1023.6 in WSW 42.6 mph 42.6 mph 71 % 0.0 in 0.0 W/m2 CLR
00:58 9.4 °F 4.4 °F 1023.6 in SSW 31.5 mph 31.5 mph 71 % 0.0 in 0.0 W/m2 CLR
01:03 9.4 °F 4.4 °F 1023.6 in SW 35.2 mph 35.2 mph 71 % 0.0 in 0.0 W/m2 CLR
01:08 9.4 °F 4.4 °F 1023.2 in SW 33.3 mph 33.3 mph 71 % 0.0 in 0.0 W/m2 CLR
01:13 10.0 °F 5.0 °F 1023.6 in SW 37.0 mph 37.0 mph 71 % 0.0 in 0.0 W/m2 CLR
01:18 9.4 °F 4.7 °F 1023.6 in SSW 31.5 mph 31.5 mph 72 % 0.0 in 0.0 W/m2 CLR
01:23 9.4 °F 4.7 °F 1023.6 in SW 24.1 mph 24.1 mph 72 % 0.0 in 0.0 W/m2 CLR
01:28 9.4 °F 4.7 °F 1023.6 in WSW 45.1 mph 45.1 mph 72 % 0.0 in 0.0 W/m2 CLR
01:33 9.4 °F 4.7 °F 1023.6 in WSW 42.6 mph 42.6 mph 72 % 0.0 in 0.0 W/m2 CLR
01:38 9.4 °F 4.7 °F 1023.6 in SSW 33.3 mph 33.3 mph 72 % 0.0 in 0.0 W/m2 CLR
01:43 9.4 °F 4.7 °F 1023.6 in SW 35.2 mph 35.2 mph 72 % 0.0 in 0.0 W/m2 CLR
01:48 9.4 °F 4.7 °F 1023.6 in SW 40.7 mph 40.7 mph 72 % 0.0 in 0.0 W/m2 CLR
01:53 9.4 °F 4.4 °F 1023.6 in SSW 35.2 mph 35.2 mph 71 % 0.0 in 0.0 W/m2 CLR
02:03 9.4 °F 4.4 °F 1023.2 in SSW 31.5 mph 31.5 mph 71 % 0.0 in 0.0 W/m2 CLR
02:08 9.4 °F 4.7 °F 1023.2 in SW 46.3 mph 46.3 mph 72 % 0.0 in 0.0 W/m2 CLR
02:13 9.4 °F 4.7 °F 1023.2 in SSW 40.7 mph 40.7 mph 72 % 0.0 in 0.0 W/m2 CLR
02:18 9.4 °F 4.7 °F 1023.2 in SW 40.7 mph 40.7 mph 72 % 0.0 in 0.0 W/m2 CLR
02:23 9.4 °F 4.8 °F 1023.2 in SW 37.0 mph 37.0 mph 73 % 0.0 in 0.0 W/m2 CLR
02:30 9.4 °F 4.8 °F 1023.2 in WSW 41.8 mph 41.8 mph 73 % 0.0 in 0.0 W/m2 CLR
02:35 9.4 °F 4.8 °F 1023.2 in SW 46.3 mph 46.3 mph 73 % 0.0 in 0.0 W/m2 CLR
02:37 9.4 °F 4.8 °F 1023.2 in SW 46.3 mph 46.3 mph 73 % 0.0 in 0.0 W/m2 CLR
02:42 9.4 °F 4.8 °F 1023.2 in SW 37.0 mph 37.0 mph 73 % 0.0 in 0.0 W/m2 CLR
02:47 8.9 °F 4.5 °F 1023.2 in WSW 38.9 mph 38.9 mph 74 % 0.0 in 0.0 W/m2 CLR
02:52 8.9 °F 4.5 °F 1023.2 in SW 42.6 mph 42.6 mph 74 % 0.0 in 0.0 W/m2 CLR
02:57 9.4 °F 5.1 °F 1023.2 in SW 46.3 mph 46.3 mph 74 % 0.0 in 0.0 W/m2 CLR
03:02 8.9 °F 4.5 °F 1023.2 in SW 35.2 mph 35.2 mph 74 % 0.0 in 0.0 W/m2 CLR
03:07 8.9 °F 4.5 °F 1023.2 in SSW 42.6 mph 42.6 mph 74 % 0.0 in 0.0 W/m2 CLR
03:12 8.9 °F 4.5 °F 1023.2 in SW 38.9 mph 38.9 mph 74 % 0.0 in 0.0 W/m2 CLR
03:17 8.9 °F 4.5 °F 1023.2 in SW 31.5 mph 31.5 mph 74 % 0.0 in 0.0 W/m2 CLR
03:22 8.9 °F 4.5 °F 1023.2 in WSW 31.5 mph 31.5 mph 74 % 0.0 in 0.0 W/m2 CLR
03:27 8.9 °F 4.7 °F 1023.2 in SW 29.6 mph 29.6 mph 75 % 0.0 in 0.0 W/m2 CLR
03:32 8.9 °F 4.7 °F 1023.2 in SW 31.5 mph 31.5 mph 75 % 0.0 in 0.0 W/m2 CLR
03:37 8.9 °F 4.7 °F 1023.2 in SW 29.6 mph 29.6 mph 75 % 0.0 in 0.0 W/m2 CLR
03:42 8.9 °F 4.7 °F 1022.9 in SW 25.7 mph 25.7 mph 75 % 0.0 in 0.0 W/m2 CLR
03:47 8.9 °F 4.7 °F 1022.9 in SSW 35.2 mph 35.2 mph 75 % 0.0 in 0.0 W/m2 CLR
03:52 8.9 °F 4.7 °F 1022.9 in SSW 35.2 mph 35.2 mph 75 % 0.0 in 0.0 W/m2 CLR
03:57 8.9 °F 4.5 °F 1022.9 in SW 29.6 mph 29.6 mph 74 % 0.0 in 0.0 W/m2 CLR
04:02 8.9 °F 4.5 °F 1022.9 in SW 38.9 mph 38.9 mph 74 % 0.0 in 0.0 W/m2 CLR
04:07 8.9 °F 4.3 °F 1022.9 in WSW 35.2 mph 35.2 mph 73 % 0.0 in 0.0 W/m2 CLR
04:13 8.9 °F 4.3 °F 1022.9 in SW 42.6 mph 42.6 mph 73 % 0.0 in 0.0 W/m2 CLR
04:18 8.9 °F 4.1 °F 1022.9 in SSW 35.2 mph 35.2 mph 72 % 0.0 in 0.0 W/m2 CLR
04:20 8.9 °F 4.1 °F 1022.9 in SSW 37.0 mph 37.0 mph 72 % 0.0 in 0.0 W/m2 CLR
04:21 8.9 °F 4.1 °F 1022.9 in SSW 40.7 mph 40.7 mph 72 % 0.0 in 0.0 W/m2 CLR
04:24 8.9 °F 4.1 °F 1022.9 in WSW 38.9 mph 38.9 mph 72 % 0.0 in 0.0 W/m2 CLR
04:26 8.9 °F 4.1 °F 1022.9 in SW 35.4 mph 35.4 mph 72 % 0.0 in 0.0 W/m2 CLR
04:28 8.3 °F 3.4 °F 1022.9 in SSW 42.6 mph 42.6 mph 71 % 0.0 in 0.0 W/m2 CLR
04:31 8.9 °F 3.9 °F 1023.2 in SW 40.7 mph 40.7 mph 71 % 0.0 in 0.0 W/m2 CLR
04:36 8.9 °F 3.9 °F 1022.9 in WSW 46.7 mph 46.7 mph 71 % 0.0 in 0.0 W/m2 CLR
04:41 8.9 °F 3.9 °F 1022.9 in SW 38.6 mph 38.6 mph 71 % 0.0 in 0.0 W/m2 CLR
04:46 8.9 °F 4.1 °F 1022.9 in WSW 38.9 mph 38.9 mph 72 % 0.0 in 0.0 W/m2 CLR
04:51 8.9 °F 4.1 °F 1022.9 in WSW 33.3 mph 33.3 mph 72 % 0.0 in 0.0 W/m2 CLR
04:56 8.3 °F 3.6 °F 1022.9 in SW 46.3 mph 46.3 mph 72 % 0.0 in 0.0 W/m2 CLR
05:01 8.3 °F 3.6 °F 1022.9 in WSW 42.6 mph 42.6 mph 72 % 0.0 in 0.0 W/m2 CLR
05:06 8.9 °F 4.1 °F 1022.9 in SW 37.0 mph 37.0 mph 72 % 0.0 in 0.0 W/m2 CLR
05:11 8.3 °F 3.6 °F 1022.9 in WSW 35.2 mph 35.2 mph 72 % 0.0 in 0.0 W/m2 CLR
05:16 8.3 °F 3.6 °F 1023.2 in SW 27.8 mph 27.8 mph 72 % 0.0 in 0.0 W/m2 CLR
05:21 8.3 °F 3.6 °F 1023.2 in SW 29.6 mph 29.6 mph 72 % 0.0 in 0.0 W/m2 CLR
05:26 8.3 °F 3.6 °F 1023.2 in WSW 37.0 mph 37.0 mph 72 % 0.0 in 0.0 W/m2 CLR
05:31 8.3 °F 3.6 °F 1023.2 in SW 33.3 mph 33.3 mph 72 % 0.0 in 0.0 W/m2 CLR
05:36 8.3 °F 3.8 °F 1023.2 in SW 44.4 mph 44.4 mph 73 % 0.0 in 0.0 W/m2 CLR
05:41 8.3 °F 3.8 °F 1023.2 in West 32.2 mph 32.2 mph 73 % 0.0 in 0.0 W/m2 CLR
05:46 8.3 °F 3.6 °F 1023.2 in SW 38.9 mph 38.9 mph 72 % 0.0 in 0.0 W/m2 CLR
05:51 8.3 °F 3.8 °F 1023.2 in West 40.7 mph 40.7 mph 73 % 0.0 in 0.0 W/m2 CLR
05:56 8.3 °F 3.8 °F 1023.2 in WSW 40.7 mph 40.7 mph 73 % 0.0 in 0.0 W/m2 CLR
06:01 8.3 °F 3.8 °F 1023.2 in SW 35.2 mph 35.2 mph 73 % 0.0 in 0.0 W/m2 CLR
06:06 8.3 °F 3.8 °F 1023.2 in WSW 35.2 mph 35.2 mph 73 % 0.0 in 0.0 W/m2 CLR
06:11 8.3 °F 3.8 °F 1023.2 in SW 42.6 mph 42.6 mph 73 % 0.0 in 0.0 W/m2 CLR
06:16 8.3 °F 3.6 °F 1023.2 in SW 42.6 mph 42.6 mph 72 % 0.0 in 0.0 W/m2 CLR
06:21 8.3 °F 3.6 °F 1023.6 in SSW 40.7 mph 40.7 mph 72 % 0.0 in 0.0 W/m2 CLR
06:26 8.3 °F 3.6 °F 1023.2 in WSW 42.6 mph 42.6 mph 72 % 0.0 in 0.0 W/m2 CLR
06:31 8.3 °F 3.6 °F 1023.2 in WSW 38.9 mph 38.9 mph 72 % 0.0 in 0.0 W/m2 CLR
06:36 8.3 °F 3.4 °F 1023.2 in SW 42.6 mph 42.6 mph 71 % 0.0 in 0.0 W/m2 CLR
06:41 8.3 °F 3.4 °F 1023.2 in SW 35.2 mph 35.2 mph 71 % 0.0 in 0.0 W/m2 CLR
06:46 8.3 °F 3.4 °F 1023.2 in WSW 33.3 mph 33.3 mph 71 % 0.0 in 0.0 W/m2 CLR
06:51 8.3 °F 3.4 °F 1023.2 in WSW 42.6 mph 42.6 mph 71 % 0.0 in 0.0 W/m2 CLR
06:56 8.3 °F 3.4 °F 1023.2 in West 35.2 mph 35.2 mph 71 % 0.0 in 0.0 W/m2 CLR
07:01 8.3 °F 3.4 °F 1023.2 in SW 46.3 mph 46.3 mph 71 % 0.0 in 0.0 W/m2 CLR
07:06 8.3 °F 3.4 °F 1023.2 in WSW 42.6 mph 42.6 mph 71 % 0.0 in 0.0 W/m2 CLR
07:11 8.3 °F 3.4 °F 1023.2 in WSW 40.2 mph 40.2 mph 71 % 0.0 in 0.0 W/m2 CLR
07:16 8.3 °F 3.4 °F 1023.2 in SW 42.6 mph 42.6 mph 71 % 0.0 in 0.0 W/m2 CLR
07:21 8.3 °F 3.4 °F 1023.2 in SW 38.9 mph 38.9 mph 71 % 0.0 in 0.0 W/m2 CLR
07:26 8.3 °F 3.4 °F 1023.6 in SW 37.0 mph 37.0 mph 71 % 0.0 in 0.0 W/m2 CLR
07:31 8.3 °F 3.4 °F 1023.6 in WSW 35.4 mph 35.4 mph 71 % 0.0 in 0.0 W/m2 OVC
07:36 8.3 °F 3.4 °F 1023.6 in SW 38.9 mph 38.9 mph 71 % 0.0 in 0.0 W/m2 OVC
07:41 8.3 °F 3.4 °F 1023.6 in SW 31.5 mph 31.5 mph 71 % 0.0 in 7.0 W/m2 OVC
07:46 8.3 °F 3.4 °F 1023.6 in SW 40.7 mph 40.7 mph 71 % 0.0 in 9.0 W/m2 OVC
07:51 8.3 °F 3.4 °F 1023.6 in WSW 42.6 mph 42.6 mph 71 % 0.0 in 11.0 W/m2 OVC
07:56 7.8 °F 3.1 °F 1023.6 in WSW 46.3 mph 46.3 mph 72 % 0.0 in 14.0 W/m2 OVC
08:01 8.3 °F 3.6 °F 1023.9 in SW 40.7 mph 40.7 mph 72 % 0.0 in 16.0 W/m2 OVC
08:06 8.3 °F 3.6 °F 1023.9 in WSW 38.9 mph 38.9 mph 72 % 0.0 in 19.0 W/m2 OVC
08:11 8.3 °F 3.4 °F 1023.9 in SW 42.6 mph 42.6 mph 71 % 0.0 in 30.0 W/m2 OVC
08:16 8.3 °F 3.6 °F 1023.9 in WSW 50.0 mph 50.0 mph 72 % 0.0 in 39.0 W/m2 OVC
08:21 8.3 °F 3.4 °F 1023.9 in WSW 55.5 mph 55.5 mph 71 % 0.0 in 49.0 W/m2 OVC
08:26 8.3 °F 3.4 °F 1023.9 in WSW 45.1 mph 45.1 mph 71 % 0.0 in 63.0 W/m2 OVC
08:31 8.3 °F 3.4 °F 1023.9 in SW 41.8 mph 41.8 mph 71 % 0.0 in 79.0 W/m2 OVC
08:36 8.3 °F 3.4 °F 1023.9 in WSW 35.2 mph 35.2 mph 71 % 0.0 in 93.0 W/m2 OVC
08:41 8.9 °F 3.9 °F 1023.9 in WSW 42.6 mph 42.6 mph 71 % 0.0 in 107.0 W/m2 BKN
08:46 8.9 °F 3.7 °F 1023.9 in WSW 42.6 mph 42.6 mph 70 % 0.0 in 113.0 W/m2 CLR
08:51 8.9 °F 3.7 °F 1023.9 in SW 40.7 mph 40.7 mph 70 % 0.0 in 135.0 W/m2 CLR
08:56 8.9 °F 3.5 °F 1023.9 in SW 44.4 mph 44.4 mph 69 % 0.0 in 158.0 W/m2 CLR
09:01 8.9 °F 3.5 °F 1023.9 in West 33.3 mph 33.3 mph 69 % 0.0 in 114.0 W/m2 CLR
09:06 8.9 °F 3.3 °F 1024.3 in SW 42.6 mph 42.6 mph 68 % 0.0 in 156.0 W/m2 CLR
09:11 9.4 °F 3.6 °F 1024.3 in WSW 40.7 mph 40.7 mph 67 % 0.0 in 178.0 W/m2 CLR
09:16 9.4 °F 3.6 °F 1024.3 in West 46.3 mph 46.3 mph 67 % 0.0 in 202.0 W/m2 CLR
09:21 9.4 °F 3.2 °F 1024.3 in WSW 55.5 mph 55.5 mph 65 % 0.0 in 241.0 W/m2 CLR
09:26 9.4 °F 3.2 °F 1023.9 in WSW 37.0 mph 37.0 mph 65 % 0.0 in 253.0 W/m2 CLR
09:31 9.4 °F 2.9 °F 1024.3 in WSW 40.7 mph 40.7 mph 64 % 0.0 in 267.0 W/m2 CLR
09:36 10.0 °F 3.5 °F 1023.9 in West 53.7 mph 53.7 mph 64 % 0.0 in 281.0 W/m2 CLR
09:41 10.0 °F 3.5 °F 1024.3 in WSW 51.5 mph 51.5 mph 64 % 0.0 in 295.0 W/m2 CLR
09:46 10.0 °F 3.3 °F 1024.3 in WSW 43.4 mph 43.4 mph 63 % 0.0 in 306.0 W/m2 CLR
09:51 10.0 °F 3.3 °F 1023.9 in WSW 33.8 mph 33.8 mph 63 % 0.0 in 318.0 W/m2 CLR
09:56 10.6 °F 3.6 °F 1023.9 in WSW 51.8 mph 51.8 mph 62 % 0.0 in 329.0 W/m2 CLR
10:01 10.6 °F 3.3 °F 1023.9 in West 48.1 mph 48.1 mph 61 % 0.0 in 343.0 W/m2 CLR
10:06 10.6 °F 3.3 °F 1023.9 in WSW 50.0 mph 50.0 mph 61 % 0.0 in 353.0 W/m2 CLR
10:11 10.6 °F 3.6 °F 1023.9 in WSW 50.0 mph 50.0 mph 62 % 0.0 in 367.0 W/m2 CLR
10:16 11.1 °F 4.1 °F 1023.9 in SW 49.9 mph 49.9 mph 62 % 0.0 in 381.0 W/m2 CLR
10:21 11.1 °F 3.6 °F 1023.9 in West 42.6 mph 42.6 mph 60 % 0.0 in 383.0 W/m2 CLR
10:26 10.6 °F 3.1 °F 1023.9 in WSW 50.0 mph 50.0 mph 60 % 0.0 in 406.0 W/m2 CLR
10:31 11.1 °F 3.9 °F 1023.9 in WNW 50.0 mph 50.0 mph 61 % 0.0 in 417.0 W/m2 CLR
10:36 11.1 °F 3.6 °F 1023.9 in SSW 46.3 mph 46.3 mph 60 % 0.0 in 443.0 W/m2 CLR
10:41 11.1 °F 3.2 °F 1023.9 in WSW 43.4 mph 43.4 mph 58 % 0.0 in 438.0 W/m2 CLR
10:46 11.1 °F 3.2 °F 1023.9 in WSW 42.6 mph 42.6 mph 58 % 0.0 in 454.0 W/m2 CLR
10:51 11.7 °F 3.4 °F 1023.9 in WSW 55.5 mph 55.5 mph 57 % 0.0 in 478.0 W/m2 CLR
10:56 11.7 °F 3.7 °F 1024.3 in West 35.4 mph 35.4 mph 58 % 0.0 in 563.0 W/m2 CLR
11:01 11.7 °F 3.7 °F 1023.9 in WSW 42.6 mph 42.6 mph 58 % 0.0 in 190.0 W/m2 CLR
11:06 11.7 °F 3.2 °F 1023.9 in WSW 41.8 mph 41.8 mph 56 % 0.0 in 510.0 W/m2 CLR
11:11 11.7 °F 3.4 °F 1023.9 in SW 42.6 mph 42.6 mph 57 % 0.0 in 522.0 W/m2 CLR
11:16 12.2 °F 3.7 °F 1023.9 in SW 50.0 mph 50.0 mph 56 % 0.0 in 554.0 W/m2 CLR
11:21 12.2 °F 3.7 °F 1023.9 in WSW 53.7 mph 53.7 mph 56 % 0.0 in 573.0 W/m2 CLR
11:26 12.2 °F 3.9 °F 1023.9 in West 50.0 mph 50.0 mph 57 % 0.0 in 613.0 W/m2 CLR
11:31 12.2 °F 3.4 °F 1023.9 in West 50.0 mph 50.0 mph 55 % 0.0 in 211.0 W/m2 CLR
11:36 11.7 °F 3.4 °F 1023.9 in WSW 48.1 mph 48.1 mph 57 % 0.0 in 659.0 W/m2 CLR
11:41 12.2 °F 3.7 °F 1023.9 in West 46.7 mph 46.7 mph 56 % 0.0 in 650.0 W/m2 CLR
11:46 12.2 °F 3.9 °F 1023.9 in WSW 44.4 mph 44.4 mph 57 % 0.0 in 155.0 W/m2 CLR
11:51 11.7 °F 3.7 °F 1023.9 in SW 38.9 mph 38.9 mph 58 % 0.0 in 649.0 W/m2 CLR
11:56 12.2 °F 3.7 °F 1023.6 in WSW 42.6 mph 42.6 mph 56 % 0.0 in 244.0 W/m2 CLR
12:01 12.2 °F 3.7 °F 1023.6 in WSW 40.7 mph 40.7 mph 56 % 0.0 in 612.0 W/m2 CLR
12:06 11.7 °F 2.9 °F 1023.6 in West 50.0 mph 50.0 mph 55 % 0.0 in 121.0 W/m2 CLR
12:11 12.2 °F 3.7 °F 1023.6 in SW 46.3 mph 46.3 mph 56 % 0.0 in 169.0 W/m2 CLR
12:16 12.2 °F 3.7 °F 1023.6 in WSW 45.1 mph 45.1 mph 56 % 0.0 in 272.0 W/m2 CLR
12:21 12.8 °F 3.9 °F 1023.2 in SW 37.0 mph 37.0 mph 55 % 0.0 in 621.0 W/m2 CLR
12:26 12.2 °F 3.2 °F 1023.2 in West 46.3 mph 46.3 mph 54 % 0.0 in 98.0 W/m2 CLR
12:31 11.7 °F 3.2 °F 1023.2 in West 35.2 mph 35.2 mph 56 % 0.0 in 200.0 W/m2 CLR
12:36 12.2 °F 3.7 °F 1023.2 in WSW 51.8 mph 51.8 mph 56 % 0.0 in 638.0 W/m2 CLR
12:41 12.8 °F 3.9 °F 1022.9 in WSW 44.4 mph 44.4 mph 55 % 0.0 in 638.0 W/m2 CLR
12:46 12.8 °F 3.9 °F 1022.6 in West 42.6 mph 42.6 mph 55 % 0.0 in 118.0 W/m2 CLR
12:51 12.2 °F 3.7 °F 1022.6 in WSW 50.0 mph 50.0 mph 56 % 0.0 in 577.0 W/m2 CLR
12:56 12.8 °F 3.9 °F 1022.2 in WSW 53.7 mph 53.7 mph 55 % 0.0 in 582.0 W/m2 CLR
13:01 13.3 °F 4.5 °F 1022.6 in WSW 38.9 mph 38.9 mph 55 % 0.0 in 633.0 W/m2 CLR
13:06 13.3 °F 3.7 °F 1022.6 in WSW 51.8 mph 51.8 mph 52 % 0.0 in 596.0 W/m2 CLR
13:11 12.8 °F 3.4 °F 1022.2 in SW 49.9 mph 49.9 mph 53 % 0.0 in 603.0 W/m2 CLR
13:16 12.8 °F 3.4 °F 1022.6 in WSW 48.1 mph 48.1 mph 53 % 0.0 in 109.0 W/m2 CLR
13:21 12.2 °F 3.2 °F 1022.2 in WSW 41.8 mph 41.8 mph 54 % 0.0 in 105.0 W/m2 CLR
13:26 12.8 °F 3.7 °F 1022.2 in SW 50.0 mph 50.0 mph 54 % 0.0 in 606.0 W/m2 CLR
13:31 12.8 °F 3.4 °F 1021.9 in WSW 40.2 mph 40.2 mph 53 % 0.0 in 114.0 W/m2 CLR
13:36 12.8 °F 3.4 °F 1021.9 in West 44.4 mph 44.4 mph 53 % 0.0 in 578.0 W/m2 CLR
13:41 12.8 °F 3.2 °F 1021.9 in West 61.1 mph 61.1 mph 52 % 0.0 in 529.0 W/m2 CLR
13:46 13.3 °F 3.7 °F 1021.6 in WSW 48.1 mph 48.1 mph 52 % 0.0 in 541.0 W/m2 CLR
13:51 13.3 °F 3.7 °F 1021.6 in SW 40.7 mph 40.7 mph 52 % 0.0 in 520.0 W/m2 CLR
13:56 13.9 °F 3.6 °F 1021.6 in West 46.3 mph 46.3 mph 50 % 0.0 in 522.0 W/m2 CLR
14:02 13.3 °F 3.4 °F 1021.6 in SW 35.2 mph 35.2 mph 51 % 0.0 in 554.0 W/m2 CLR
14:06 13.3 °F 3.1 °F 1021.6 in WSW 35.2 mph 35.2 mph 50 % 0.0 in 547.0 W/m2 CLR
14:11 13.3 °F 3.1 °F 1021.6 in WSW 53.7 mph 53.7 mph 50 % 0.0 in 513.0 W/m2 CLR
14:17 13.3 °F 3.1 °F 1021.6 in West 56.3 mph 56.3 mph 50 % 0.0 in 541.0 W/m2 CLR
14:21 13.9 °F 3.6 °F 1021.6 in SW 44.4 mph 44.4 mph 50 % 0.0 in 492.0 W/m2 CLR
14:27 13.3 °F 3.1 °F 1021.6 in WSW 42.6 mph 42.6 mph 50 % 0.0 in 483.0 W/m2 CLR
14:32 13.3 °F 2.8 °F 1021.6 in WSW 44.4 mph 44.4 mph 49 % 0.0 in 482.0 W/m2 CLR
14:37 13.9 °F 3.6 °F 1021.6 in SW 55.5 mph 55.5 mph 50 % 0.0 in 494.0 W/m2 CLR
14:42 13.3 °F 3.1 °F 1021.6 in WSW 45.1 mph 45.1 mph 50 % 0.0 in 471.0 W/m2 CLR
14:47 13.3 °F 2.8 °F 1021.6 in WSW 51.8 mph 51.8 mph 49 % 0.0 in 105.0 W/m2 CLR
14:52 13.3 °F 2.8 °F 1021.2 in WSW 57.4 mph 57.4 mph 49 % 0.0 in 227.0 W/m2 CLR
14:57 13.3 °F 2.8 °F 1021.2 in WSW 35.2 mph 35.2 mph 49 % 0.0 in 383.0 W/m2 CLR
15:07 13.3 °F 2.6 °F 1021.2 in West 42.6 mph 42.6 mph 48 % 0.0 in 69.0 W/m2 CLR
15:12 12.8 °F 2.1 °F 1021.2 in WSW 50.0 mph 50.0 mph 48 % 0.0 in 155.0 W/m2 CLR
15:17 12.8 °F 2.3 °F 1021.2 in WSW 44.4 mph 44.4 mph 49 % 0.0 in 403.0 W/m2 CLR
15:22 13.3 °F 2.2 °F 1020.9 in SW 38.9 mph 38.9 mph 47 % 0.0 in 387.0 W/m2 CLR
15:27 13.3 °F 2.6 °F 1020.9 in SW 38.9 mph 38.9 mph 48 % 0.0 in 387.0 W/m2 CLR
15:32 13.3 °F 2.6 °F 1020.9 in SW 57.4 mph 57.4 mph 48 % 0.0 in 367.0 W/m2 CLR
15:37 13.3 °F 1.9 °F 1020.9 in WSW 57.4 mph 57.4 mph 46 % 0.0 in 339.0 W/m2 CLR
15:42 13.3 °F 1.6 °F 1020.5 in West 46.3 mph 46.3 mph 45 % 0.0 in 318.0 W/m2 CLR
15:47 12.8 °F 1.4 °F 1020.5 in SW 44.4 mph 44.4 mph 46 % 0.0 in 302.0 W/m2 CLR
15:48 12.8 °F 1.4 °F 1020.5 in WSW 46.3 mph 46.3 mph 46 % 0.0 in 297.0 W/m2 CLR
15:53 13.3 °F 1.9 °F 1020.5 in WSW 61.1 mph 61.1 mph 46 % 0.0 in 287.0 W/m2 CLR
15:58 13.3 °F 1.9 °F 1020.5 in WSW 57.4 mph 57.4 mph 46 % 0.0 in 272.0 W/m2 CLR
16:03 12.8 °F 1.1 °F 1020.5 in SW 61.1 mph 61.1 mph 45 % 0.0 in 250.0 W/m2 CLR
16:08 12.8 °F 1.1 °F 1020.5 in WSW 53.7 mph 53.7 mph 45 % 0.0 in 227.0 W/m2 CLR
16:13 12.2 °F 0.9 °F 1020.5 in SW 56.3 mph 56.3 mph 46 % 0.0 in 56.0 W/m2 CLR
16:18 12.2 °F 1.5 °F 1020.5 in WSW 50.0 mph 50.0 mph 48 % 0.0 in 44.0 W/m2 SCT
16:23 12.2 °F 1.5 °F 1020.5 in West 40.2 mph 40.2 mph 48 % 0.0 in 197.0 W/m2 FEW
16:28 12.2 °F 1.2 °F 1020.5 in WSW 40.7 mph 40.7 mph 47 % 0.0 in 54.0 W/m2 CLR
16:33 12.2 °F 1.5 °F 1020.5 in WSW 48.3 mph 48.3 mph 48 % 0.0 in 95.0 W/m2 FEW
16:35 12.2 °F 1.5 °F 1020.5 in WSW 48.1 mph 48.1 mph 48 % 0.0 in 93.0 W/m2 FEW
16:40 11.7 °F 1.3 °F 1020.9 in WSW 50.0 mph 50.0 mph 49 % 0.0 in 132.0 W/m2 FEW
16:45 12.2 °F 2.1 °F 1020.5 in WSW 50.0 mph 50.0 mph 50 % 0.0 in 93.0 W/m2 FEW
16:50 11.7 °F 1.6 °F 1020.5 in SSW 48.1 mph 48.1 mph 50 % 0.0 in 95.0 W/m2 BKN
17:00 11.7 °F 1.8 °F 1020.9 in SW 53.7 mph 53.7 mph 51 % 0.0 in 30.0 W/m2 BKN
17:05 11.7 °F 2.1 °F 1020.9 in SW 51.8 mph 51.8 mph 52 % 0.0 in 62.0 W/m2 SCT
17:10 11.7 °F 1.8 °F 1020.5 in West 57.4 mph 57.4 mph 51 % 0.0 in 44.0 W/m2 BKN
17:15 11.1 °F 1.1 °F 1020.9 in West 46.7 mph 46.7 mph 50 % 0.0 in 28.0 W/m2 BKN
17:20 11.1 °F 1.1 °F 1020.9 in West 40.7 mph 40.7 mph 50 % 0.0 in 23.0 W/m2 BKN
17:22 11.1 °F 1.1 °F 1020.5 in WSW 31.5 mph 31.5 mph 50 % 0.0 in 23.0 W/m2 BKN
17:27 11.1 °F 1.1 °F 1020.5 in WSW 48.1 mph 48.1 mph 50 % 0.0 in 18.0 W/m2 BKN
17:32 11.1 °F 1.3 °F 1020.5 in WSW 46.3 mph 46.3 mph 51 % 0.0 in 14.0 W/m2 BKN
17:37 11.1 °F 1.3 °F 1020.5 in West 33.3 mph 33.3 mph 51 % 0.0 in 11.0 W/m2 BKN
17:42 10.6 °F 0.8 °F 1020.9 in SSW 33.3 mph 33.3 mph 51 % 0.0 in 9.0 W/m2 BKN
17:47 10.6 °F 0.8 °F 1020.9 in WSW 46.3 mph 46.3 mph 51 % 0.0 in 5.0 W/m2 OVC
17:52 10.6 °F 0.8 °F 1020.9 in West 29.6 mph 29.6 mph 51 % 0.0 in 0.0 W/m2 OVC
17:57 10.6 °F 0.8 °F 1021.2 in WSW 48.1 mph 48.1 mph 51 % 0.0 in 0.0 W/m2 OVC
18:02 10.6 °F 1.1 °F 1021.2 in SW 33.3 mph 33.3 mph 52 % 0.0 in 0.0 W/m2 CLR
18:07 10.0 °F 0.6 °F 1021.2 in SW 27.8 mph 27.8 mph 52 % 0.0 in 0.0 W/m2 CLR
18:12 10.6 °F 1.4 °F 1020.9 in West 40.2 mph 40.2 mph 53 % 0.0 in 0.0 W/m2 CLR
18:17 10.0 °F 0.8 °F 1021.2 in WSW 42.6 mph 42.6 mph 53 % 0.0 in 0.0 W/m2 CLR
18:22 10.0 °F 1.1 °F 1021.2 in WSW 33.3 mph 33.3 mph 54 % 0.0 in 0.0 W/m2 CLR
18:27 10.0 °F 1.1 °F 1021.2 in WSW 27.8 mph 27.8 mph 54 % 0.0 in 0.0 W/m2 CLR
18:32 10.0 °F 1.6 °F 1021.2 in SW 37.0 mph 37.0 mph 56 % 0.0 in 0.0 W/m2 CLR
18:37 9.4 °F 1.3 °F 1021.2 in West 29.6 mph 29.6 mph 57 % 0.0 in 0.0 W/m2 CLR
18:42 9.4 °F 1.6 °F 1021.2 in SW 40.7 mph 40.7 mph 58 % 0.0 in 0.0 W/m2 CLR
18:47 9.4 °F 1.6 °F 1021.6 in WSW 35.2 mph 35.2 mph 58 % 0.0 in 0.0 W/m2 CLR
18:52 9.4 °F 1.6 °F 1021.2 in WSW 37.0 mph 37.0 mph 58 % 0.0 in 0.0 W/m2 CLR
18:53 9.4 °F 1.6 °F 1021.2 in WSW 37.0 mph 37.0 mph 58 % 0.0 in 0.0 W/m2 CLR
18:58 9.4 °F 1.6 °F 1021.2 in SW 42.6 mph 42.6 mph 58 % 0.0 in 0.0 W/m2 CLR
19:03 9.4 °F 1.8 °F 1021.2 in SW 37.0 mph 37.0 mph 59 % 0.0 in 0.0 W/m2 CLR
19:08 9.4 °F 1.8 °F 1021.2 in SW 42.6 mph 42.6 mph 59 % 0.0 in 0.0 W/m2 CLR
19:13 9.4 °F 1.8 °F 1021.2 in WSW 40.7 mph 40.7 mph 59 % 0.0 in 0.0 W/m2 CLR
19:18 9.4 °F 1.8 °F 1021.2 in SW 50.0 mph 50.0 mph 59 % 0.0 in 0.0 W/m2 CLR
19:23 9.4 °F 1.8 °F 1021.2 in SW 44.4 mph 44.4 mph 59 % 0.0 in 0.0 W/m2 CLR
19:28 9.4 °F 1.8 °F 1021.2 in WSW 48.3 mph 48.3 mph 59 % 0.0 in 0.0 W/m2 CLR
19:33 8.9 °F 1.6 °F 1021.2 in SW 38.9 mph 38.9 mph 60 % 0.0 in 0.0 W/m2 CLR
19:38 8.9 °F 1.6 °F 1021.2 in WSW 42.6 mph 42.6 mph 60 % 0.0 in 0.0 W/m2 CLR
19:43 8.9 °F 1.6 °F 1021.2 in West 38.9 mph 38.9 mph 60 % 0.0 in 0.0 W/m2 CLR
19:48 8.9 °F 1.8 °F 1021.2 in SW 48.1 mph 48.1 mph 61 % 0.0 in 0.0 W/m2 CLR
19:53 8.9 °F 1.8 °F 1021.2 in SW 44.4 mph 44.4 mph 61 % 0.0 in 0.0 W/m2 CLR
19:58 8.9 °F 1.8 °F 1020.9 in SW 33.8 mph 33.8 mph 61 % 0.0 in 0.0 W/m2 CLR
20:03 8.9 °F 1.8 °F 1020.9 in WSW 46.3 mph 46.3 mph 61 % 0.0 in 0.0 W/m2 CLR
20:08 8.9 °F 1.8 °F 1020.9 in SW 38.9 mph 38.9 mph 61 % 0.0 in 0.0 W/m2 CLR
20:13 8.3 °F 1.2 °F 1020.9 in SW 38.9 mph 38.9 mph 61 % 0.0 in 0.0 W/m2 CLR
20:18 8.3 °F 1.2 °F 1020.9 in WSW 48.1 mph 48.1 mph 61 % 0.0 in 0.0 W/m2 CLR
20:23 8.3 °F 1.2 °F 1020.9 in SW 35.2 mph 35.2 mph 61 % 0.0 in 0.0 W/m2 CLR
20:28 8.3 °F 1.2 °F 1020.9 in SSW 42.6 mph 42.6 mph 61 % 0.0 in 0.0 W/m2 CLR
20:33 8.3 °F 1.2 °F 1020.5 in West 37.0 mph 37.0 mph 61 % 0.0 in 0.0 W/m2 CLR
20:38 8.3 °F 1.2 °F 1020.5 in WSW 31.5 mph 31.5 mph 61 % 0.0 in 0.0 W/m2 CLR
20:43 8.3 °F 1.4 °F 1020.5 in WSW 49.9 mph 49.9 mph 62 % 0.0 in 0.0 W/m2 CLR
20:48 8.3 °F 1.4 °F 1020.9 in SW 37.0 mph 37.0 mph 62 % 0.0 in 0.0 W/m2 CLR
20:53 8.3 °F 1.4 °F 1021.2 in SSW 22.2 mph 22.2 mph 62 % 0.0 in 0.0 W/m2 CLR
20:58 8.3 °F 1.7 °F 1021.6 in SW 29.6 mph 29.6 mph 63 % 0.0 in 0.0 W/m2 CLR
21:03 7.8 °F 1.2 °F 1021.6 in WSW 31.5 mph 31.5 mph 63 % 0.0 in 0.0 W/m2 CLR
21:08 7.8 °F 1.4 °F 1021.6 in WSW 33.3 mph 33.3 mph 64 % 0.0 in 0.0 W/m2 CLR
21:13 7.8 °F 1.4 °F 1021.6 in SW 31.5 mph 31.5 mph 64 % 0.0 in 0.0 W/m2 CLR
21:18 7.8 °F 1.6 °F 1021.2 in SW 33.8 mph 33.8 mph 65 % 0.0 in 0.0 W/m2 CLR
21:23 7.8 °F 1.6 °F 1021.6 in WSW 31.5 mph 31.5 mph 65 % 0.0 in 0.0 W/m2 CLR
21:33 7.8 °F 1.6 °F 1021.9 in SW 20.4 mph 20.4 mph 65 % 0.0 in 0.0 W/m2 CLR
21:38 7.8 °F 1.6 °F 1021.6 in WSW 24.1 mph 24.1 mph 65 % 0.0 in 0.0 W/m2 CLR
21:43 7.8 °F 1.6 °F 1021.6 in WSW 29.0 mph 29.0 mph 65 % 0.0 in 0.0 W/m2 CLR
21:48 7.8 °F 1.6 °F 1021.6 in WSW 33.3 mph 33.3 mph 65 % 0.0 in 0.0 W/m2 CLR
21:53 7.8 °F 1.6 °F 1021.6 in SW 38.6 mph 38.6 mph 65 % 0.0 in 0.0 W/m2 CLR
21:58 7.8 °F 1.6 °F 1021.6 in SW 29.6 mph 29.6 mph 65 % 0.0 in 0.0 W/m2 CLR
22:08 7.2 °F 1.3 °F 1021.9 in WSW 25.9 mph 25.9 mph 66 % 0.0 in 0.0 W/m2 CLR
22:13 7.2 °F 1.3 °F 1021.9 in WSW 29.6 mph 29.6 mph 66 % 0.0 in 0.0 W/m2 CLR
22:18 7.2 °F 1.3 °F 1021.6 in SW 24.1 mph 24.1 mph 66 % 0.0 in 0.0 W/m2 CLR
22:23 7.2 °F 1.5 °F 1021.9 in SW 22.2 mph 22.2 mph 67 % 0.0 in 0.0 W/m2 CLR
22:28 7.2 °F 1.5 °F 1021.9 in SW 18.5 mph 18.5 mph 67 % 0.0 in 0.0 W/m2 CLR
22:33 7.2 °F 1.5 °F 1022.2 in SW 20.9 mph 20.9 mph 67 % 0.0 in 0.0 W/m2 CLR
22:38 7.2 °F 1.7 °F 1022.2 in SW 27.8 mph 27.8 mph 68 % 0.0 in 0.0 W/m2 CLR
22:43 7.2 °F 1.7 °F 1021.9 in WSW 30.6 mph 30.6 mph 68 % 0.0 in 0.0 W/m2 CLR
22:48 7.2 °F 1.7 °F 1021.9 in SW 22.2 mph 22.2 mph 68 % 0.0 in 0.0 W/m2 CLR
22:53 7.2 °F 1.9 °F 1021.9 in SW 25.9 mph 25.9 mph 69 % 0.0 in 0.0 W/m2 CLR
22:58 6.7 °F 1.4 °F 1021.9 in West 29.6 mph 29.6 mph 69 % 0.0 in 0.0 W/m2 CLR
23:03 6.7 °F 1.4 °F 1021.9 in SW 25.9 mph 25.9 mph 69 % 0.0 in 0.0 W/m2 CLR
23:08 6.7 °F 1.4 °F 1021.9 in WSW 31.5 mph 31.5 mph 69 % 0.0 in 0.0 W/m2 CLR
23:13 6.7 °F 1.4 °F 1021.6 in SW 27.4 mph 27.4 mph 69 % 0.0 in 0.0 W/m2 CLR
23:18 6.7 °F 1.4 °F 1021.9 in SW 25.7 mph 25.7 mph 69 % 0.0 in 0.0 W/m2 CLR
23:23 6.7 °F 1.4 °F 1021.9 in SW 27.8 mph 27.8 mph 69 % 0.0 in 0.0 W/m2 CLR
23:28 6.7 °F 1.4 °F 1021.9 in SW 24.1 mph 24.1 mph 69 % 0.0 in 0.0 W/m2 CLR
23:33 6.7 °F 1.4 °F 1021.6 in SW 24.1 mph 24.1 mph 69 % 0.0 in 0.0 W/m2 CLR
23:38 6.7 °F 1.6 °F 1021.6 in SW 29.6 mph 29.6 mph 70 % 0.0 in 0.0 W/m2 CLR
23:44 6.7 °F 1.6 °F 1021.9 in SW 31.5 mph 31.5 mph 70 % 0.0 in 0.0 W/m2 CLR
23:49 6.7 °F 1.6 °F 1021.6 in SW 31.5 mph 31.5 mph 70 % 0.0 in 0.0 W/m2 CLR
23:54 6.7 °F 1.4 °F 1021.6 in SW 37.0 mph 37.0 mph 69 % 0.0 in 0.0 W/m2 CLR
23:59 6.7 °F 1.4 °F 1021.6 in SW 29.6 mph 29.6 mph 69 % 0.0 in 0.0 W/m2 CLR
Lo Temps de Massalio
Compliments of Weather Underground - 1.25 mb